^^
Station Historical Data
Daily Summary for July 17, 2017 Units:  Metric    English   Both
« Previous Day
Next Day »
Daily Weekly Monthly Yearly Custom
  High: Low: Average:
Temperature: 17.1 °C 3.3 °C 8.9 °C
Dew Point: -1.2 °C -6.8 °C -3.6 °C
Humidity: 64% 25% 43%
Wind Speed: 20.9km/h 0km/h 7.7km/h
Wind Gust: 30.6km/h - -
Wind- - SSW
Pressure: 1031 hPa 1025.3 hPa -
Precipitation: 0 mm    
Historical Graphs
 
 
Tabular Data for July 17, 2017
Time Temperature Dew Point Pressure Wind Wind Speed Wind Gust Humidity Rainfall Rate (Hourly) solar Conditions
00:02 7 °C -3 °C 1029.7 hPa SE 14.3 km/h 22.5 km/h 49% 0 mm 0.0 W/m2
00:12 7 °C -3 °C 1029.7 hPa SE 20.9 km/h 24.1 km/h 49% 0 mm 0.0 W/m2
00:17 6.9 °C -2.8 °C 1029.7 hPa SE 20.9 km/h 22.5 km/h 50% 0 mm 0.0 W/m2
00:23 6.9 °C -2.8 °C 1029.3 hPa SE 13 km/h 22.5 km/h 50% 0 mm 0.0 W/m2
00:33 6.9 °C -2.8 °C 1029.3 hPa SE 16.3 km/h 22.5 km/h 50% 0 mm 0.0 W/m2
00:43 6.9 °C -2.8 °C 1029.3 hPa SE 17.7 km/h 24.1 km/h 50% 0 mm 0.0 W/m2
00:53 6.9 °C -2.8 °C 1029.3 hPa SE 3.2 km/h 19.3 km/h 50% 0 mm 0.0 W/m2
01:02 6.8 °C -2.6 °C 1029.7 hPa SE 7.9 km/h 14.5 km/h 51% 0 mm 0.0 W/m2
01:08 6.7 °C -2.7 °C 1029.7 hPa SE 7.9 km/h 12.9 km/h 51% 0 mm 0.0 W/m2
01:13 6.7 °C -3 °C 1029.7 hPa SE 6.4 km/h 12.9 km/h 50% 0 mm 0.0 W/m2
01:18 6.6 °C -2.8 °C 1029.7 hPa SE 4.7 km/h 6.4 km/h 51% 0 mm 0.0 W/m2
01:23 6.5 °C -2.9 °C 1029.7 hPa SE 6.4 km/h 6.4 km/h 51% 0 mm 0.0 W/m2
01:28 6.3 °C -2.8 °C 1029.3 hPa SE 6.4 km/h 8 km/h 52% 0 mm 0.0 W/m2
01:33 6.4 °C -2.7 °C 1029.3 hPa Calm   9.7 km/h 52% 0 mm 0.0 W/m2
01:38 6.6 °C -2.8 °C 1029.3 hPa SE 7.9 km/h 11.3 km/h 51% 0 mm 0.0 W/m2
01:43 6.7 °C -3 °C 1029.3 hPa SE 16.3 km/h 16.3 km/h 50% 0 mm 0.0 W/m2
01:48 6.9 °C -3.1 °C 1029.3 hPa SE 6.4 km/h 8 km/h 49% 0 mm 0.0 W/m2
01:53 7 °C -3 °C 1029.3 hPa SE 11.1 km/h 19.3 km/h 49% 0 mm 0.0 W/m2
01:58 7 °C -3 °C 1029.3 hPa SE 6.4 km/h 11.3 km/h 49% 0 mm 0.0 W/m2
02:03 6.8 °C -3.2 °C 1029.3 hPa SE 6.4 km/h 16.1 km/h 49% 0 mm 0.0 W/m2
02:08 6.8 °C -3.2 °C 1029.7 hPa SE 7.9 km/h 14.5 km/h 49% 0 mm 0.0 W/m2
02:18 6.7 °C -3.5 °C 1029.7 hPa SE 7.9 km/h 14.5 km/h 48% 0 mm 0.0 W/m2
02:23 6.6 °C -3.4 °C 1029.7 hPa SE 11.1 km/h 12.9 km/h 49% 0 mm 0.0 W/m2
02:28 6.5 °C -3.5 °C 1029.7 hPa SE 4.7 km/h 12.9 km/h 49% 0 mm 0.0 W/m2
02:39 6.4 °C -3.3 °C 1029.3 hPa SE 3.2 km/h 11.3 km/h 50% 0 mm 0.0 W/m2
02:44 6.4 °C -3.3 °C 1029.7 hPa SE 3.2 km/h 9.7 km/h 50% 0 mm 0.0 W/m2
02:49 6.4 °C -3.3 °C 1029.3 hPa Calm   4.8 km/h 50% 0 mm 0.0 W/m2
02:54 6.3 °C -3.1 °C 1029.3 hPa SE 4.7 km/h 11.3 km/h 51% 0 mm 0.0 W/m2
03:04 6.2 °C -3.2 °C 1029.7 hPa SE 11.1 km/h 14.5 km/h 51% 0 mm 0.0 W/m2
03:09 6.2 °C -2.9 °C 1029.7 hPa SE 6.4 km/h 11.3 km/h 52% 0 mm 0.0 W/m2
03:14 6.2 °C -3.2 °C 1029.3 hPa SE 7.9 km/h 9.7 km/h 51% 0 mm 0.0 W/m2
03:19 6.2 °C -3.2 °C 1029.3 hPa SE 7.9 km/h 9.7 km/h 51% 0 mm 0.0 W/m2
03:24 6.2 °C -2.9 °C 1029.3 hPa SE 7.9 km/h 12.9 km/h 52% 0 mm 0.0 W/m2
03:34 6 °C -3.1 °C 1029.3 hPa SE 4.7 km/h 9.7 km/h 52% 0 mm 0.0 W/m2
03:39 5.9 °C -3.2 °C 1029.7 hPa SE 4.7 km/h 11.3 km/h 52% 0 mm 0.0 W/m2
03:44 5.9 °C -3.2 °C 1029.3 hPa SE 4.7 km/h 12.9 km/h 52% 0 mm 0.0 W/m2
03:49 5.8 °C -3.3 °C 1029.3 hPa SE 7.9 km/h 12.9 km/h 52% 0 mm 0.0 W/m2
03:54 5.7 °C -3.1 °C 1029.3 hPa SE 6.4 km/h 11.3 km/h 53% 0 mm 0.0 W/m2
03:59 5.5 °C -3.3 °C 1029.3 hPa SE 4.7 km/h 9.7 km/h 53% 0 mm 0.0 W/m2
04:04 5.3 °C -3.3 °C 1029.3 hPa SE 3.2 km/h 8 km/h 54% 0 mm 0.0 W/m2
04:19 4.6 °C -3.4 °C 1029.3 hPa SE 6.4 km/h 8 km/h 56% 0 mm 0.0 W/m2
04:24 4.4 °C -3.4 °C 1029.7 hPa SE 7.9 km/h 11.3 km/h 57% 0 mm 0.0 W/m2
04:29 4.3 °C -3.2 °C 1029.7 hPa SE 7.9 km/h 9.7 km/h 58% 0 mm 0.0 W/m2
04:39 4.4 °C -3.1 °C 1029.3 hPa SE 9.7 km/h 12.9 km/h 58% 0 mm 0.0 W/m2
04:44 4.6 °C -3 °C 1029.3 hPa SE 13 km/h 16.1 km/h 58% 0 mm 0.0 W/m2
04:49 4.7 °C -2.9 °C 1029.3 hPa SE 7.9 km/h 14.5 km/h 58% 0 mm 0.0 W/m2
04:54 4.7 °C -2.9 °C 1029.3 hPa SE 6.4 km/h 16.1 km/h 58% 0 mm 0.0 W/m2
04:59 4.6 °C -3 °C 1029.3 hPa SE 9.7 km/h 11.3 km/h 58% 0 mm 0.0 W/m2
05:04 4.6 °C -3 °C 1029.7 hPa SE 7.9 km/h 9.7 km/h 58% 0 mm 0.0 W/m2
05:09 4.4 °C -2.9 °C 1029.7 hPa SE 7.9 km/h 9.7 km/h 59% 0 mm 0.0 W/m2
05:23 4.2 °C -2.9 °C 1029.7 hPa SE 7.9 km/h 12.9 km/h 60% 0 mm 0.0 W/m2
05:36 4.3 °C -2.8 °C 1029.7 hPa SE 9.7 km/h 11.3 km/h 60% 0 mm 0.0 W/m2
06:05 3.5 °C -2.9 °C 1029.7 hPa SE 11.1 km/h 11.3 km/h 63% 0 mm 0.0 W/m2
06:19 3.6 °C -2.8 °C 1030 hPa SE 9.7 km/h 11.3 km/h 63% 0 mm 0.0 W/m2
06:29 3.8 °C -2.6 °C 1030 hPa SE 9.7 km/h 11.3 km/h 63% 0 mm 0.0 W/m2
06:40 3.6 °C -2.8 °C 1030 hPa SE 7.9 km/h 11.3 km/h 63% 0 mm 0.0 W/m2
07:15 3.8 °C -2.8 °C 1030 hPa SE 6.4 km/h 8 km/h 62% 0 mm 37.0 W/m2
07:25 3.3 °C -2.9 °C 1030 hPa SE 4.7 km/h 9.7 km/h 64% 0 mm 30.0 W/m2
07:54 4.6 °C -1.8 °C 1030.4 hPa Calm     63% 0 mm 149.0 W/m2
08:06 5.4 °C -1.7 °C 1030.4 hPa Calm     60% 0 mm 93.0 W/m2
08:18 6.4 °C -1.5 °C 1030.7 hPa SE 4.7 km/h 6.4 km/h 57% 0 mm 267.0 W/m2
08:29 7.1 °C -1.6 °C 1030.7 hPa SE 11.1 km/h 11.3 km/h 54% 0 mm 283.0 W/m2
08:41 7.3 °C -1.9 °C 1031 hPa SE 13 km/h 14.5 km/h 52% 0 mm 316.0 W/m2
08:56 7.9 °C -1.9 °C 1031 hPa SE 11.1 km/h 16.1 km/h 50% 0 mm 357.0 W/m2
09:12 8.4 °C -2.3 °C 1031 hPa ESE 11.1 km/h 19.3 km/h 47% 0 mm 394.0 W/m2
09:28 9.1 °C -2.5 °C 1031 hPa ESE 7.9 km/h 17.7 km/h 44% 0 mm 413.0 W/m2
09:41 9.3 °C -2.3 °C 1031 hPa East 4.7 km/h 17.7 km/h 44% 0 mm 461.0 W/m2
09:56 9.8 °C -2.2 °C 1031 hPa East 3.2 km/h 16.1 km/h 43% 0 mm 496.0 W/m2
10:12 10.3 °C -2.1 °C 1030.7 hPa East 7.9 km/h 14.5 km/h 42% 0 mm 524.0 W/m2
10:58 11.9 °C -1.6 °C 1029.7 hPa ENE 9.7 km/h 20.9 km/h 39% 0 mm 603.0 W/m2
11:29 13.2 °C -1.2 °C 1029.3 hPa NNE 7.9 km/h 22.5 km/h 37% 0 mm 552.0 W/m2
11:40 13.3 °C -1.5 °C 1029 hPa NNE 11.1 km/h 24.1 km/h 36% 0 mm 635.0 W/m2
12:33 14.7 °C -1.8 °C 1027.7 hPa North 13 km/h 20.9 km/h 32% 0 mm 617.0 W/m2
12:42 15 °C -1.6 °C 1027.3 hPa North 11.1 km/h 30.6 km/h 32% 0 mm 617.0 W/m2
12:53 15.1 °C -1.9 °C 1027.3 hPa North 16.3 km/h 27.4 km/h 31% 0 mm 652.0 W/m2
13:08 15.4 °C -2.1 °C 1026.6 hPa North 9.7 km/h 24.1 km/h 30% 0 mm 573.0 W/m2
13:24 15.4 °C -2.1 °C 1026.6 hPa North 9.7 km/h 20.9 km/h 30% 0 mm 582.0 W/m2
14:09 16.1 °C -1.9 °C 1026 hPa North 1.4 km/h 20.9 km/h 29% 0 mm 489.0 W/m2
14:24 16.4 °C -2.2 °C 1025.6 hPa North 14.3 km/h 19.3 km/h 28% 0 mm 452.0 W/m2
14:39 16.7 °C -2.4 °C 1025.6 hPa North 7.9 km/h 19.3 km/h 27% 0 mm 418.0 W/m2
14:52 16.6 °C -2.5 °C 1025.6 hPa North 7.9 km/h 19.3 km/h 27% 0 mm 376.0 W/m2
15:05 16.8 °C -2.8 °C 1025.6 hPa North 7.9 km/h 19.3 km/h 26% 0 mm 360.0 W/m2
15:20 16.9 °C -2.7 °C 1025.6 hPa North 11.1 km/h 20.9 km/h 26% 0 mm 315.0 W/m2
15:34 17.1 °C -2.6 °C 1025.6 hPa North 14.3 km/h 17.7 km/h 26% 0 mm 274.0 W/m2
15:42 17 °C -2.7 °C 1025.6 hPa North 9.7 km/h 17.7 km/h 26% 0 mm 248.0 W/m2
15:51 16.8 °C -2.8 °C 1025.3 hPa North 6.4 km/h 19.3 km/h 26% 0 mm 214.0 W/m2
15:57 16.8 °C -3.3 °C 1025.3 hPa North 7.9 km/h 19.3 km/h 25% 0 mm 202.0 W/m2
16:06 16.8 °C -3.3 °C 1025.3 hPa North 9.7 km/h 22.5 km/h 25% 0 mm 167.0 W/m2
16:12 16.8 °C -2.8 °C 1025.3 hPa North 7.9 km/h 12.9 km/h 26% 0 mm 135.0 W/m2
16:17 16.8 °C -3.3 °C 1025.3 hPa North 13 km/h 20.9 km/h 25% 0 mm 125.0 W/m2
16:23 16.6 °C -3.5 °C 1025.3 hPa North 14.3 km/h 19.3 km/h 25% 0 mm 105.0 W/m2
16:35 16.6 °C -3.5 °C 1025.6 hPa North 11.1 km/h 14.5 km/h 25% 0 mm 72.0 W/m2
16:50 16.4 °C -3.7 °C 1025.6 hPa Calm   12.9 km/h 25% 0 mm 35.0 W/m2
17:04 15.9 °C -4.1 °C 1025.6 hPa North 6.4 km/h 14.5 km/h 25% 0 mm 11.0 W/m2
17:13 15.6 °C -4.4 °C 1025.6 hPa Calm   19.3 km/h 25% 0 mm 7.0 W/m2
17:25 15.4 °C -4.5 °C 1026 hPa Calm     25% 0 mm 0.0 W/m2
17:37 15.1 °C -4.3 °C 1026 hPa Calm     26% 0 mm 0.0 W/m2
17:52 14.8 °C -4.5 °C 1026 hPa North 9.7 km/h 9.7 km/h 26% 0 mm 0.0 W/m2
18:06 14.5 °C -4.3 °C 1026 hPa Calm     27% 0 mm 0.0 W/m2
18:18 14.1 °C -4.6 °C 1026 hPa Calm     27% 0 mm 0.0 W/m2
18:32 12.6 °C -5 °C 1026 hPa Calm     29% 0 mm 0.0 W/m2
18:42 11.7 °C -5.3 °C 1026 hPa Calm     30% 0 mm 0.0 W/m2
20:30 8.8 °C -5.8 °C 1026.3 hPa Calm     35% 0 mm 0.0 W/m2
21:46 7.3 °C -6.8 °C 1026.6 hPa North 6.4 km/h 12.9 km/h 36% 0 mm 0.0 W/m2
21:58 7.5 °C -6.6 °C 1026.6 hPa North 7.9 km/h 9.7 km/h 36% 0 mm 0.0 W/m2
22:05 7.8 °C -6.4 °C 1026.6 hPa North 7.9 km/h 14.5 km/h 36% 0 mm 0.0 W/m2
22:10 8.1 °C -6.5 °C 1026.6 hPa Calm   12.9 km/h 35% 0 mm 0.0 W/m2
22:20 7.8 °C -6.7 °C 1026.6 hPa North 9.7 km/h 11.3 km/h 35% 0 mm 0.0 W/m2
22:25 7.7 °C -6.4 °C 1026.6 hPa North 7.9 km/h 9.7 km/h 36% 0 mm 0.0 W/m2
22:30 7.5 °C -6.6 °C 1026.6 hPa North 6.4 km/h 11.3 km/h 36% 0 mm 0.0 W/m2
22:37 7.5 °C -6.6 °C 1026.6 hPa North 7.9 km/h 11.3 km/h 36% 0 mm 0.0 W/m2
22:46 7.6 °C -6.5 °C 1026.6 hPa North 7.9 km/h 11.3 km/h 36% 0 mm 0.0 W/m2
22:51 7.8 °C -6.4 °C 1026.6 hPa North 9.7 km/h 11.3 km/h 36% 0 mm 0.0 W/m2
23:01 8.1 °C -6.5 °C 1026.6 hPa North 3.2 km/h 9.7 km/h 35% 0 mm 0.0 W/m2
23:06 8.1 °C -6.5 °C 1026.6 hPa North 3.2 km/h 9.7 km/h 35% 0 mm 0.0 W/m2
23:16 7.9 °C -6.3 °C 1026.6 hPa North 9.7 km/h 11.3 km/h 36% 0 mm 0.0 W/m2
23:21 7.9 °C -6.3 °C 1026.6 hPa North 6.4 km/h 11.3 km/h 36% 0 mm 0.0 W/m2
23:26 7.8 °C -6.4 °C 1026.6 hPa North 6.4 km/h 11.3 km/h 36% 0 mm 0.0 W/m2
23:31 7.8 °C -6.4 °C 1026.6 hPa North 9.7 km/h 11.3 km/h 36% 0 mm 0.0 W/m2
23:36 7.9 °C -6.6 °C 1026.6 hPa North 13 km/h 13 km/h 35% 0 mm 0.0 W/m2
23:41 8 °C -6.5 °C 1026.3 hPa North 9.7 km/h 14.5 km/h 35% 0 mm 0.0 W/m2
23:46 8.1 °C -6.5 °C 1026.6 hPa North 9.7 km/h 14.5 km/h 35% 0 mm 0.0 W/m2
23:51 8.2 °C -6.7 °C 1026.3 hPa North 11.1 km/h 12.9 km/h 34% 0 mm 0.0 W/m2
23:56 8.2 °C -6.7 °C 1026.3 hPa North 13 km/h 13 km/h 34% 0 mm 0.0 W/m2
Canyon Roadhouse, Fishriver Canyon, Namibia
Compliments of Weather Underground - 2.25 mb